Tiempo atmosférico en la estación meteorológica de Almería Aeropuerto, Almería (21 m.)



Fecha
DESCASC
Temp. máxima en grados centígrados (hora)
DESCASC
Temp. mínima en grados centígrados (hora)
DESCASC
Temp. media en grados centígrados
DESCASC
Racha de viento máxima en m/sg (hora)
DESCASC
Velocidad máxima media en intervalos de 10 minutos(hora)
DESCASC
Precipitaciones diarias en mm
DESCASC
Precipitaciones de 00:00 a 06:00 en mm
DESCASC
Precipitaciones de 06:00 a 12:00 en mm
DESCASC
Precipitaciones de 12:00 a 18:00 en mm
DESCASC
Precipitaciones de 18:00 a 24:00 en mm
DESCASC
19-04-2018 25.2 (16:00) 14.6 (01:00) 19.9 16.11 (15:00) 12.22 (15:40) 0 0 0 0 0
18-04-2018 26 (16:20) 11.9 (05:10) 18.9 13.33 (16:10) 10.56 (16:50) 0 0 0 0 0
17-04-2018 22.1 (13:20) 11.5 (03:10) 16.8 10.28 (08:00) 6.39 (06:50) 0 0 0 0 0
16-04-2018 19.7 (16:30) 12.7 (06:20) 16.2 12.78 (13:20) 9.72 (14:10) 0 0 0 0 0
15-04-2018 19 (16:00) 11.1 (00:00) 15.1 9.17 (18:20) 6.94 (18:20) 0 0 0 0 0
14-04-2018 19.8 (22:00) 7.8 (00:00) 13.8 14.44 (18:40) 10.83 (16:10) 0 0 0 0 0
13-04-2018 17.9 (15:50) 10.5 (00:00) 14.2 16.39 (00:20) 11.94 (00:20) 0.1 0.1 0 0 0
12-04-2018 18.4 (18:20) 8.7 (00:00) 13.5 18.89 (16:50) 14.17 (17:00) 1.3 0 0 0 1.3
11-04-2018 18.3 (16:00) 7.6 (00:00) 12.9 21.11 (16:40) 15.28 (17:30) 0 0 0 0 0
10-04-2018 17.1 (12:30) 8.1 (00:00) 12.6 24.72 (15:10) 16.67 (15:50) 9.7 0 0 0.3 9.4
09-04-2018 16.7 (17:30) 12.8 (00:00) 14.8 20 (15:40) 15 (14:50) 0 0 0 0 0
08-04-2018 20.2 (15:00) 10 (00:00) 15.1 18.06 (18:00) 12.78 (18:00) 0 0 0 0 0
07-04-2018 18.4 (12:30) 12.9 (00:00) 15.6 18.61 (15:40) 13.61 (15:40) 0 0 0 0 0
06-04-2018 26.7 (17:00) 14.9 (00:00) 20.8 12.78 (17:10) 8.61 (17:10) 0 0 0 0 0
05-04-2018 24.6 (14:30) 10.7 (00:00) 17.7 14.44 (18:00) 11.11 (19:00) 0 0 0 0 0
04-04-2018 19.4 (18:20) 12.8 (00:00) 16.1 15 (18:20) 11.11 (18:20) 0 0 0 0 0
03-04-2018 20.4 (18:20) 11.6 (00:00) 16 17.5 (17:50) 12.78 (16:10) 0 0 0 0 0
02-04-2018 19.6 (16:00) 13.4 (00:00) 16.5 9.17 (18:20) 7.22 (18:20) 0 0 0 0 0
01-04-2018 22.7 (14:30) 9.2 (00:00) 16 13.89 (16:30) 10 (18:20) 0 0 0 0 0
31-03-2018 18.9 (11:50) 10.3 (00:00) 14.6 18.89 (02:50) 12.5 (02:10) 0 0 0 0 0
30-03-2018 17.6 (13:20) 12.4 (00:00) 15 24.72 (14:20) 19.17 (14:30) 0 0 0 0 0
29-03-2018 18.9 (15:20) 12.1 (00:00) 15.5 18.61 (18:50) 13.89 (18:50) 0 0 0 0 0
28-03-2018 18.8 (16:30) 9.5 (00:00) 14.1 7.78 (15:20) 5.83 (15:20) 0 0 0 0 0
27-03-2018 19.6 (10:20) 10.5 (00:00) 15.1 8.33 (07:20) 6.11 (17:10) 0 0 0 0 0
26-03-2018 19.1 (11:20) 10.5 (00:00) 14.8 11.67 (10:40) 8.06 (15:20) 0 0 0 0 0
25-03-2018 17.3 (12:50) 10.1 (00:00) 13.7 14.44 (03:50) 9.72 (04:20) 0.2 0 0 0.1 0.1
24-03-2018 19.2 (16:10) 10.8 (00:00) 15 25.83 (05:20) 18.33 (05:40) 0.8 0 0.8 0 0
23-03-2018 16.8 (12:50) 6.6 (00:00) 11.7 21.67 (23:59) 12.78 (23:10) 0 0 0 0 0

Gráficas

Temp. máximas Temp. mínimas Temp. medias Precipitaciones Rachas de viento máximas Velocidades máximas media en intervalos de 10 minutos

Datos horarios

Fecha y hora oficial Temperatura (ºC) Velocidad del viento (km/h) Dirección del viento Racha (km/h) Dirección de racha Precipitación (mm) Presión (hPa) Tendencia (hPa) Humedad (%)
2018-04-21 23:00:00 23.7 36 Nordeste 63 Nordeste 0 1012.4 1.3 34
2018-04-21 22:00:00 22.3 19 Nordeste 48 Nordeste 0 1011.7 0.3 41
2018-04-21 21:00:00 22.1 40 Nordeste 65 Nordeste 0 1011.1 -0.3 40
2018-04-21 20:00:00 23 39 Nordeste 63 Nordeste 0 1011.1 -0.5 38
2018-04-21 19:00:00 23.8 38 Nordeste 65 Este 0 1011.4 -0.7 37
2018-04-21 18:00:00 25.3 48 Este 67 Este 0 1011.4 -1.2 35
2018-04-21 17:00:00 26.1 46 Este 65 Este 0 1011.6 -1.7 34
2018-04-21 16:00:00 27.6 44 Nordeste 65 Este 0 1012.1 -1.7 32
2018-04-21 15:00:00 27 46 Nordeste 72 Este 0 1012.6 -2.1 33
2018-04-21 14:00:00 25.7 45 Nordeste 72 Nordeste 0 1013.3 -1.5 36
2018-04-21 13:00:00 25.5 47 Nordeste 71 Nordeste 0 1013.8 -0.9 36
2018-04-21 12:00:00 24.5 37 Nordeste 58 Nordeste 0 1014.7 0.5 36
2018-04-21 11:00:00 23.4 33 Nordeste 54 Nordeste 0 1014.8 0.6 38
2018-04-21 10:00:00 21.9 18 Nordeste 37 Norte 0 1014.7 1 40
2018-04-21 09:00:00 21 24 Nordeste 50 Norte 0 1014.2 1 42
2018-04-21 08:00:00 20.5 24 Nordeste 55 Nordeste 0 1014.2 1.4 43
2018-04-21 07:00:00 20.5 30 Nordeste 54 Nordeste 0 1013.7 0.5 43
2018-04-21 06:00:00 18.9 8 Noroeste 35 Norte 0 1013.2 -1.2 50
2018-04-21 05:00:00 18.8 14 Noroeste 28 Noroeste 0 1012.8 -2.5 52
2018-04-21 04:00:00 18.5 11 Norte 24 Norte 0 1013.2 -2.1 54
2018-04-21 03:00:00 18.4 10 Noroeste 18 Noroeste 0 1014.4 -1.1 56
2018-04-21 02:00:00 18.7 11 Noroeste 28 Norte 0 1015.3 0 55
2018-04-21 01:00:00 20.1 17 Nordeste 48 Nordeste 0 1015.3 0.9 46
2018-04-21 00:00:00 20.1 28 Nordeste 55 Nordeste 0 1015.5 2.5 49
2018-04-20 23:00:00 19.7 23 Nordeste 46 Este 0 1015.3 3.1 54
2018-04-20 22:00:00 19.9 17 Nordeste 52 Nordeste 0 1014.4 1.9 57
2018-04-20 21:00:00 20.2 38 Nordeste 71 Este 0 1013 0.6 54
2018-04-20 20:00:00 19.7 53 Nordeste 71 Nordeste 0 1012.2 -0.6 62
2018-04-20 19:00:00 22 50 Este 80 Nordeste 0 1012.5 -1.7 52
2018-04-20 18:00:00 24.1 49 Nordeste 68 Nordeste 0 1012.4 -2.6 42
2018-04-20 17:00:00 24.5 49 Nordeste 67 Nordeste 0 1012.8 -2.8 41
2018-04-20 16:00:00 24.1 40 Nordeste 55 Este 0 1014.2 -2.3 43
2018-04-20 15:00:00 23.4 42 Nordeste 61 Nordeste 0 1015 -1.5 44
2018-04-20 14:00:00 23 40 Nordeste 63 Este 0 1015.6 -1 47
2018-04-20 13:00:00 21.9 45 Este 63 Nordeste 0 1016.5 0.2 48
2018-04-20 12:00:00 20.5 44 Nordeste 63 Nordeste 0 1016.5 0.5 52
2018-04-20 11:00:00 19.8 37 Nordeste 58 Nordeste 0 1016.6 1.1 54
2018-04-20 10:00:00 19.1 39 Nordeste 55 Nordeste 0 1016.3 0.4 55
2018-04-20 09:00:00 18.1 32 Nordeste 46 Nordeste 0 1016 0 57
2018-04-20 08:00:00 16.2 30 Nordeste 42 Nordeste 0 1015.5 -1 66
2018-04-20 07:00:00 15.7 23 Este 33 Este 0 1015.9 -1.1 73
2018-04-20 06:00:00 15.8 24 Este 37 Este 0 1016 -1.4 74
2018-04-20 05:00:00 15.7 19 Este 26 Este 0 1016.5 -1.1 73
2018-04-20 04:00:00 16 15 Este 30 Este 0 1017 -0.7 69
2018-04-20 03:00:00 15.9 21 Este 30 Este 0 1017.4 -0.5 75
2018-04-20 02:00:00 16.4 24 Este 35 Este 0 1017.6 -0.1 72
2018-04-20 01:00:00 16.6 28 Este 45 Este 0 1017.7 0.6 74
2018-04-20 00:00:00 16.5 32 Este 45 Este 0 1017.9 0.9 77
2018-04-19 23:00:00 16.1 28 Este 42 Este 0 1017.7 0.8 77
2018-04-19 22:00:00 17.9 18 Este 33 Este 0 1017.1 0.5 63
2018-04-19 21:00:00 17.6 19 Este 41 Este 0 1017 0.6 70
2018-04-19 20:00:00 19.6 28 Este 45 Este 0 1016.9 0.5 62
2018-04-19 19:00:00 22.2 34 Este 48 Este 0 1016.6 -0.3 53
2018-04-19 18:00:00 23.1 37 Este 48 Este 0 1016.4 -1 51
2018-04-19 17:00:00 24.3 39 Este 52 Este 0 1016.4 -1.6 46
2018-04-19 16:00:00 24.6 41 Este 54 Este 0 1016.9 -1.8 47
2018-04-19 15:00:00 24.7 42 Este 58 Nordeste 0 1017.4 -1.6 43
2018-04-19 14:00:00 24.9 37 Este 52 Este 0 1018 -1.1 42
2018-04-19 13:00:00 24.2 32 Este 48 Este 0 1018.7 -0.5 42
2018-04-19 12:00:00 24.2 26 Este 42 Nordeste 0 1019 -0.2 39
2018-04-19 11:00:00 22.9 31 Este 41 Este 0 1019.1 0.2 37
2018-04-19 10:00:00 21.5 21 Este 32 Este 0 1019.2 0.6 40
2018-04-19 09:00:00 18.2 10 Norte 24 Noroeste 0 1019.2 0.5 45
2018-04-19 08:00:00 16.5 14 Noroeste 28 Noroeste 0 1018.9 -0.2 48
2018-04-19 07:00:00 16.1 15 Norte 28 Noroeste 0 1018.6 -0.9 50
2018-04-19 06:00:00 16.2 15 Norte 26 Norte 0 1018.7 -1.5 50
2018-04-19 05:00:00 15.9 16 Norte 30 Noroeste 0 1019.1 -1.6 52
2018-04-19 04:00:00 16 17 Noroeste 24 Noroeste 0 1019.5 -1.5 53
2018-04-19 03:00:00 15.9 9 Norte 21 Norte 0 1020.2 -0.9 57
2018-04-19 02:00:00 16 12 Norte 21 Norte 0 1020.7 -0.3 54
2018-04-19 01:00:00 14.8 3 Oeste 11 Este 0 1021 0.5 63
2018-04-19 00:00:00 15.1 10 Nordeste 21 Este 0 1021.1 1.1 56
2018-04-18 23:00:00 16.9 15 Nordeste 22 Este 0 1021 1.5 50
2018-04-18 22:00:00 17.7 16 Este 28 Este 0 1020.5 1.1 50
2018-04-18 21:00:00 19.6 22 Este 37 Este 0 1020 0.6 38
2018-04-18 20:00:00 21.9 29 Este 48 Este 0 1019.5 0 34
2018-04-18 19:00:00 23.8 31 Este 48 Este 0 1019.4 -0.6 30
2018-04-18 18:00:00 24.8 35 Este 46 Este 0 1019.4 -1.2 28
2018-04-18 17:00:00 25.4 35 Este 48 Este 0 1019.5 -1.3 27
2018-04-18 16:00:00 25.5 34 Este 46 Este 0 1020 -1.4 28
2018-04-18 15:00:00 25.3 28 Este 42 Este 0 1020.6 -1 34
2018-04-18 14:00:00 25.2 28 Este 39 Este 0 1020.8 -0.7 34
2018-04-18 13:00:00 20.9 15 Sudoeste 22 Sur 0 1021.4 0.1 53
2018-04-18 12:00:00 20.2 15 Sur 24 Sudoeste 0 1021.6 0.5 61
2018-04-18 11:00:00 21.7 15 Sudoeste 22 Oeste 0 1021.5 0.7 48
2018-04-18 10:00:00 20.3 11 Nordeste 21 Este 0 1021.3 0.6 48
2018-04-18 09:00:00 17.4 11 Este 17 Este 0 1021.1 0.4 56
2018-04-18 08:00:00 14.9 10 Nordeste 18 Nordeste 0 1020.8 -0.2 61
2018-04-18 07:00:00 14.1 10 Norte 17 Nordeste 0 1020.7 -0.6 66
2018-04-18 06:00:00 13.3 5 Norte 9 Nordeste 0 1020.7 -0.7 73
2018-04-18 05:00:00 12.3 3 Norte 9 Nordeste 0 1021 -0.9 79
2018-04-18 04:00:00 13.2 4 Este 9 Este 0 1021.3 -0.7 73
2018-04-18 03:00:00 14.1 3 Nordeste 9 Este 0 1021.4 -0.5 72
2018-04-18 02:00:00 14.2 6 Este 13 Nordeste 0 1021.9 -0.1 72
2018-04-18 01:00:00 15.4 10 Nordeste 17 Nordeste 0 1022 0.7 68
2018-04-18 00:00:00 14.7 11 Este 13 Este 0 1021.9 1 71
2018-04-17 23:00:00 16.3 8 Nordeste 13 Nordeste 0 1022 1.4 64
2018-04-17 22:00:00 16.8 6 Noroeste 18 Noroeste 0 1021.3 0.5 66
2018-04-17 21:00:00 17.1 4 Oeste 11 Noroeste 0 1020.9 0.2 67
2018-04-17 20:00:00 18.5 6 Sudoeste 17 Sudoeste 0 1020.6 -0.3 62
2018-04-17 19:00:00 19.2 11 Sudoeste 22 Sudoeste 0 1020.8 -0.4 62
2018-04-17 18:00:00 19.7 15 Sudoeste 26 Sur 0 1020.7 -0.5 61
2018-04-17 17:00:00 19.8 13 Sudoeste 32 Sudoeste 0 1020.9 -0.2 62
2018-04-17 16:00:00 19.5 17 Sur 33 Sudoeste 0 1021.2 -0.3 62
2018-04-17 15:00:00 20.9 19 Sur 28 Sur 0 1021.2 -0.5 56
2018-04-17 14:00:00 20.7 17 Sur 24 Sur 0 1021.1 -0.4 59
2018-04-17 13:00:00 21 9 Sur 15 Sur 0 1021.5 0.4 54
2018-04-17 12:00:00 20.2 12 Sudoeste 15 Sudoeste 0 1021.7 1.4 47
2018-04-17 11:00:00 21.8 9 Sudeste 18 Este 0 1021.5 1.7 40
2018-04-17 10:00:00 19.8 4 Este 28 Norte 0 1021.1 1.8 40
2018-04-17 09:00:00 15.8 16 Norte 33 Norte 0 1020.3 1.3 46
2018-04-17 08:00:00 15.3 23 Norte 37 Norte 0 1019.8 0.7 45
2018-04-17 07:00:00 14.4 23 Noroeste 33 Noroeste 0 1019.3 0.3 49
2018-04-17 06:00:00 14.7 18 Norte 26 Noroeste 0 1019 0.1 49
2018-04-17 05:00:00 13 2 Norte 18 Norte 0 1019.1 0.6 61
2018-04-17 04:00:00 12.9 6 Nordeste 13 Este 0 1019 0.7 69
2018-04-17 03:00:00 11.8 7 Este 13 Noroeste 0 1018.9 1.4 77
2018-04-17 02:00:00 13.4 8 Norte 13 Nordeste 0 1018.5 1.5 79
2018-04-17 01:00:00 13.1 8 Noroeste 17 Norte 0 1018.3 2 89
2018-04-17 00:00:00 13.6 5 Sur 13 Sur 0 1017.5 1.9 89
2018-04-16 23:00:00 14.2 5 Norte 13 Nordeste 0 1017 2.2 81
2018-04-16 22:00:00 14.7 11 Nordeste 15 Nordeste 0 1016.3 2.3 82
2018-04-16 21:00:00 15.5 8 Este 13 Este 0 1015.6 2.2 80
2018-04-16 20:00:00 17.5 8 Sur 26 Sudoeste 0 1014.8 1.9 69
2018-04-16 19:00:00 18.1 21 Sudoeste 30 Sudoeste 0 1014 0.8 68
2018-04-16 18:00:00 18.9 21 Sudoeste 35 Sudoeste 0 1013.4 -0.1 64
2018-04-16 17:00:00 19.4 29 Sudoeste 42 Sudoeste 0 1012.9 -1.2 60
2018-04-16 16:00:00 19.2 30 Sudoeste 41 Sudoeste 0 1013.2 -1.3 62
2018-04-16 15:00:00 18.4 30 Sudoeste 45 Sudoeste 0 1013.5 -0.9 66
2018-04-16 14:00:00 18.5 32 Sudoeste 46 Sudoeste 0 1014.1 -0.2 65
2018-04-16 13:00:00 18.1 31 Sudoeste 41 Sudoeste 0 1014.5 0.7 68
2018-04-16 12:00:00 17.7 26 Sudoeste 37 Sudoeste 0 1014.4 0.8 71
2018-04-16 11:00:00 17.4 26 Sudoeste 35 Sudoeste 0 1014.3 1.4 73
2018-04-16 10:00:00 16.8 12 Sur 17 Sudoeste 0 1013.8 1.3 77
2018-04-16 09:00:00 15.3 2 Este 11 Oeste 0 1013.6 1.2 86
2018-04-16 08:00:00 13.3 0 Calma 15 Oeste 0 1012.9 0.5 92
2018-04-16 07:00:00 13.3 5 Oeste 17 Oeste 0 1012.5 0.1 92
2018-04-16 06:00:00 13.2 7 Norte 22 Oeste 0 1012.4 -0.7 91
2018-04-16 05:00:00 14.3 11 Oeste 26 Sudoeste 0 1012.4 -0.7 92
2018-04-16 04:00:00 13 3 Norte 8 Norte 0 1012.4 -1.5 94
2018-04-16 03:00:00 13.3 5 Nordeste 11 Este 0 1013.1 -1 95
2018-04-16 02:00:00 13.3 9 Nordeste 13 Nordeste 0 1013.1 -1.4 93
2018-04-16 01:00:00 13.7 8 Nordeste 11 Nordeste 0 1013.9 -0.4 94
2018-04-16 00:00:00 14.1 0 Calma 9 Este 0 1014.1 -0.1 93
2018-04-15 23:00:00 14.5 4 Este 11 Sur 0 1014.5 0.5 91
2018-04-15 22:00:00 15.5 9 Sur 17 Sudoeste 0 1014.3 0.3 85
2018-04-15 21:00:00 15.8 11 Sur 24 Sudoeste 0 1014.2 0.6 84
2018-04-15 20:00:00 17.2 17 Sudoeste 28 Sudoeste 0 1014 0.2 76
2018-04-15 19:00:00 17.5 22 Sudoeste 33 Sudoeste 0 1014 -0.7 78
2018-04-15 18:00:00 18.4 22 Sudoeste 30 Sudoeste 0 1013.6 -1.6 74
2018-04-15 17:00:00 18.4 20 Sudoeste 32 Sudoeste 0 1013.8 -1.8 73
2018-04-15 16:00:00 18.8 19 Sudoeste 28 Sudoeste 0 1014.7 -1.4 72
2018-04-15 15:00:00 18.3 22 Sudoeste 32 Sudoeste 0 1015.2 -1.3 72
2018-04-15 14:00:00 18 17 Sudoeste 26 Sudoeste 0 1015.6 -0.6 72
2018-04-15 13:00:00 18.2 14 Sudoeste 21 Sudoeste 0 1016.1 0.2 65
2018-04-15 12:00:00 17.4 9 Sur 13 Sur 0 1016.5 1.1 75
2018-04-15 11:00:00 17.1 9 Sur 13 Sur 0 1016.2 0.9 72
2018-04-15 10:00:00 17.1 10 Sudeste 17 Sudeste 0 1015.9 0.5 69
2018-04-15 09:00:00 13.9 12 Sudeste 17 Sudeste 0 1015.4 0 82
2018-04-15 08:00:00 11.8 14 Norte 21 Norte 0 1015.3 -0.2 84
2018-04-15 07:00:00 11.5 14 Norte 18 Norte 0 1015.4 -0.2 86
2018-04-15 06:00:00 11.8 11 Norte 15 Norte 0 1015.4 -0.4 81
2018-04-15 05:00:00 12.2 6 Norte 13 Nordeste 0 1015.5 -0.3 80
2018-04-15 04:00:00 12.5 11 Nordeste 22 Norte 0 1015.6 0.3 82
2018-04-15 03:00:00 13.2 13 Norte 18 Norte 0 1015.8 1.2 82
2018-04-15 02:00:00 13.6 4 Nordeste 21 Este 0 1015.8 1.3 85
2018-04-15 01:00:00 15.1 14 Este 22 Este 0 1015.3 1.9 74
2018-04-15 00:00:00 18.9 19 Norte 32 Norte 0 1014.6 2.3 40
2018-04-14 23:00:00 15.7 4 Noroeste 17 Este 0 1014.5 3.2 70
2018-04-14 22:00:00 19.7 14 Norte 24 Norte 0 1013.4 2.7 38
2018-04-14 21:00:00 17.2 4 Nordeste 37 Oeste 0 1012.3 1.4 66
2018-04-14 20:00:00 18.5 27 Oeste 52 Oeste 0 1011.3 0.2 60
2018-04-14 19:00:00 19 35 Sudoeste 52 Oeste 0 1010.7 -0.6 56
2018-04-14 18:00:00 16.4 32 Sudoeste 46 Sudoeste 0 1010.9 -0.9 79
2018-04-14 17:00:00 18.3 35 Sudoeste 48 Sudoeste 0 1011.1 -1.8 64
2018-04-14 16:00:00 18.5 35 Sudoeste 46 Sudoeste 0 1011.3 -1.7 65
2018-04-14 15:00:00 18.3 20 Sudoeste 32 Sudoeste 0 1011.8 -1.1 66
2018-04-14 14:00:00 17.3 11 Sur 18 Sudoeste 0 1012.9 0.4 68
2018-04-14 13:00:00 16.5 7 Sur 15 Sur 0 1013 1.1 68
2018-04-14 12:00:00 15.9 9 Sudeste 15 Sur 0 1012.9 1.1 68
2018-04-14 11:00:00 14.8 10 Sur 13 Sur 0 1012.5 1.5 66
2018-04-14 10:00:00 14.7 6 Sur 11 Sur 0 1011.9 1.9 64
2018-04-14 09:00:00 11.1 7 Norte 11 Norte 0 1011.8 2 76
2018-04-14 08:00:00 8.5 7 Norte 11 Norte 0 1011 1.8 87
2018-04-14 07:00:00 8.7 0 Calma 8 Norte 0 1010 1.1 84
2018-04-14 06:00:00 8.8 0 Calma 11 Norte 0 1009.8 0.6 84
2018-04-14 05:00:00 10 10 Norte 15 Noroeste 0 1009.2 -0.4 78
2018-04-14 04:00:00 10.2 12 Norte 15 Norte 0 1008.9 -0.5 78
2018-04-14 03:00:00 10.4 13 Norte 18 Noroeste 0 1009.2 0.1 79
2018-04-14 02:00:00 11.5 14 Noroeste 21 Noroeste 0 1009.6 1.1 74
2018-04-14 01:00:00 11 11 Noroeste 15 Noroeste 0 1009.4 1.6 80
2018-04-14 00:00:00 11 9 Noroeste -- -- 0 1009.1 2.2 83
2018-04-13 23:00:00 11.9 8 Norte 13 Norte 0 1008.5 2.3 77
2018-04-13 22:00:00 12.6 8 Nordeste 11 Nordeste 0 1007.8 2 76
2018-04-13 21:00:00 13.8 4 Sudeste 13 Sur 0 1006.9 1.1 74
2018-04-13 20:00:00 15.2 10 Sur 21 Sur 0 1006.2 0.5 70
2018-04-13 19:00:00 15.9 14 Sur 30 Sudoeste 0 1005.8 0.1 66
2018-04-13 18:00:00 15.7 23 Sur 33 Sudoeste 0 1005.8 -0.1 69
2018-04-13 17:00:00 15.9 23 Sur 33 Sudoeste 0 1005.7 -0.1 70
2018-04-13 16:00:00 17.4 21 Sudoeste 30 Sudoeste 0 1005.7 -0.2 63
2018-04-13 15:00:00 15.8 25 Sur 35 Sudoeste 0 1005.9 0.1 69
2018-04-13 14:00:00 16.2 26 Sudoeste 37 Sudoeste 0 1005.8 0.6 69
2018-04-13 13:00:00 16.3 23 Sudoeste 32 Sur 0 1005.9 0.8 69
2018-04-13 12:00:00 15.7 23 Sudoeste 33 Oeste 0 1005.8 1.4 67
2018-04-13 11:00:00 14.5 24 Oeste 32 Oeste 0 1005.2 1.4 69
2018-04-13 10:00:00 13.8 10 Sudoeste 22 Oeste 0 1005.1 2.1 73
2018-04-13 09:00:00 12 10 Oeste 24 Oeste 0 1004.4 1.8 78
2018-04-13 08:00:00 10.6 3 Noroeste 30 Oeste 0 1003.8 1.2 86
2018-04-13 07:00:00 11.4 18 Oeste 33 Oeste 0 1003 0.1 86
2018-04-13 06:00:00 11.9 24 Sudoeste 35 Oeste 0 1002.6 -0.6 83
2018-04-13 05:00:00 11.7 27 Sudoeste 41 Oeste 0 1002.6 -0.8 84
2018-04-13 04:00:00 12.6 35 Sudoeste 52 Sudoeste 0 1002.9 -0.7 82
2018-04-13 03:00:00 12.6 40 Sudoeste 52 Sudoeste 0 1003.2 0.3 82
2018-04-13 02:00:00 12.4 32 Sudoeste 46 Sudoeste 0 1003.4 0.2 82
2018-04-13 01:00:00 12 22 Oeste 59 Sudoeste 0.1 1003.6 0.7 87
2018-04-13 00:00:00 12.5 33 Sudoeste 46 Sudoeste 0.1 1002.9 1 84
2018-04-12 23:00:00 12.3 13 Oeste 42 Oeste 1.1 1003.2 1.7 80
2018-04-12 22:00:00 13.8 40 Sudoeste 55 Sudoeste 0.1 1002.9 1.1 82
2018-04-12 21:00:00 14.7 19 Sudoeste 30 Sudoeste 0 1001.9 -0.1 79
2018-04-12 20:00:00 15 17 Sudoeste 32 Sudoeste 0 1001.5 -0.9 79
2018-04-12 19:00:00 15.9 25 Sudoeste 50 Sudoeste 0 1001.8 -1.1 75
2018-04-12 18:00:00 17.1 32 Sudoeste 67 Sudoeste 0 1002 -1.5 57
2018-04-12 17:00:00 16.3 51 Sudoeste 68 Oeste 0 1002.4 -1.6 64
2018-04-12 16:00:00 16.8 40 Sudoeste 61 Sudoeste 0 1002.9 -2.1 56
2018-04-12 15:00:00 16.4 36 Sudoeste 50 Sudoeste 0 1003.5 -1.9 68
2018-04-12 14:00:00 16.5 31 Sudoeste 52 Sudoeste 0 1004 -1.2 69
2018-04-12 13:00:00 16.4 35 Sudoeste 52 Sudoeste 0 1005 -0.2 63
2018-04-12 12:00:00 16.7 30 Sudoeste 42 Sudoeste 0 1005.4 0.7 58
2018-04-12 11:00:00 15.5 14 Sudoeste 21 Sudoeste 0 1005.2 1.1 58
2018-04-12 10:00:00 14 9 Sudoeste 13 Sur 0 1005.2 1.4 63
2018-04-12 09:00:00 12.7 0 Calma 13 Noroeste 0 1004.7 0.9 69
2018-04-12 08:00:00 10 3 Este 13 Nordeste 0 1004.1 0.3 73
2018-04-12 07:00:00 9.1 4 Este 13 Norte 0 1003.8 0.1 75
2018-04-12 06:00:00 9.3 3 Norte 13 Norte 0 1003.8 0.1 74
2018-04-12 05:00:00 9.4 3 Norte 13 Sudoeste 0 1003.8 -0.1 76
2018-04-12 04:00:00 9.5 9 Este 13 Nordeste 0 1003.7 -0.4 75
2018-04-12 03:00:00 11.8 8 Oeste 32 Oeste 0 1003.7 -0.3 69
2018-04-12 02:00:00 12.5 17 Sudoeste 26 Oeste 0 1003.9 0.4 69
2018-04-12 01:00:00 12.5 3 Norte 33 Oeste 0 1004.1 1.3 66
2018-04-12 00:00:00 13.6 21 Sudoeste 45 Oeste 0 1004 2.2 70
2018-04-11 23:00:00 14.1 30 Sudoeste 50 Sudoeste 0 1003.5 2.4 69
2018-04-11 22:00:00 14.5 31 Oeste 59 Oeste 0 1002.8 2.7 64
2018-04-11 21:00:00 14.9 34 Oeste 65 Oeste 0 1001.8 2.3 60
2018-04-11 20:00:00 15.7 41 Oeste 61 Oeste 0 1001.1 1.6 57
2018-04-11 19:00:00 17 39 Oeste 71 Oeste 0 1000.1 0.9 52
2018-04-11 18:00:00 17.2 50 Oeste 76 Oeste 0 999.5 0.2 47
2018-04-11 17:00:00 17.8 50 Oeste 76 Sudoeste 0 999.5 0.3 41
2018-04-11 16:00:00 17.8 49 Oeste 71 Oeste 0 999.2 0 40
2018-04-11 15:00:00 16.8 48 Oeste 72 Sudoeste 0 999.3 0 48
2018-04-11 14:00:00 16.3 50 Sudoeste 71 Sudoeste 0 999.2 0.1 53
2018-04-11 13:00:00 15.9 50 Sudoeste 72 Oeste 0 999.2 0.7 53
2018-04-11 12:00:00 15.2 42 Sudoeste 59 Sudoeste 0 999.3 1.2 53
2018-04-11 11:00:00 14.7 38 Oeste 52 Oeste 0 999.1 1.6 51
2018-04-11 10:00:00 13.5 20 Oeste 46 Oeste 0 998.5 1.7 57
2018-04-11 09:00:00 10.5 7 Noroeste 24 Oeste 0 998.1 1.5 67
2018-04-11 08:00:00 9.3 14 Noroeste 24 Oeste 0 997.5 1 68
2018-04-11 07:00:00 10.7 23 Oeste 42 Oeste 0 996.8 0.3 62
2018-04-11 06:00:00 8.6 7 Oeste 18 Norte 0 996.6 0 73
2018-04-11 05:00:00 10 10 Norte 21 Noroeste 0 996.5 -0.2 62
2018-04-11 04:00:00 10.7 11 Noroeste 32 Norte 0 996.5 0.5 58
2018-04-11 03:00:00 11.7 19 Norte 45 Noroeste 0 996.6 0.7 54
2018-04-11 02:00:00 11.5 29 Noroeste 55 Norte 0 996.7 0.1 63
2018-04-11 01:00:00 13.2 25 Oeste 48 Oeste 0 996 0.3 81
2018-04-11 00:00:00 13.7 31 Sudoeste 52 Oeste 0 995.9 -0.8 92
2018-04-10 23:00:00 13.9 40 Sudoeste 72 Sudoeste 0 996.6 -1.1 94
2018-04-10 22:00:00 13.7 52 Sudoeste 76 Sudoeste 1.8 995.7 -3.3 95
2018-04-10 21:00:00 13.2 44 Sudoeste 58 Sudoeste 2.5 996.7 -3.7 91
2018-04-10 20:00:00 12.9 27 Sudoeste 39 Sudoeste 3.1 997.7 -4.1 93
2018-04-10 19:00:00 13.1 26 Sudoeste 41 Sudoeste 2 999 -3.3 95
2018-04-10 18:00:00 13.6 28 Sudoeste 45 Sudoeste 0.1 1000.4 -2.9 88
2018-04-10 17:00:00 13.3 33 Sudoeste 71 Sudoeste 0.2 1001.8 -2.4 86
2018-04-10 16:00:00 13.9 56 Sudoeste 89 Oeste 0 1002.3 -2.8 84
2018-04-10 15:00:00 15 52 Oeste 76 Oeste 0 1003.3 -2.2 71
2018-04-10 14:00:00 14.6 50 Sudoeste 74 Sudoeste 0 1004.2 -1.8 73
2018-04-10 13:00:00 16.3 49 Sudoeste 78 Sudoeste 0 1005.1 -2 62
2018-04-10 12:00:00 16.6 53 Sudoeste 68 Sudoeste 0 1005.5 -1.7 58
2018-04-10 11:00:00 15.9 40 Sudoeste 50 Sudoeste 0 1006 -1.5 56
2018-04-10 10:00:00 14.7 19 Oeste 33 Oeste 0 1007.1 -0.8 49
2018-04-10 09:00:00 10.9 10 Norte 17 Norte 0 1007.2 -1.1 53
2018-04-10 08:00:00 8.7 12 Norte 18 Norte 0 1007.5 -1.3 64
2018-04-10 07:00:00 8.6 9 Noroeste 15 Noroeste 0 1007.9 -1.3 65
2018-04-10 06:00:00 9 7 Norte 15 Norte 0 1008.3 -1.3 80
2018-04-10 05:00:00 11 0 Calma 21 Sudoeste 0 1008.8 -1.2 74
2018-04-10 04:00:00 12.9 15 Sudoeste 24 Sudoeste 0 1009.2 -1.2 70
2018-04-10 03:00:00 13.4 17 Sudoeste 24 Sur 0 1009.6 -0.9 66
2018-04-10 02:00:00 13.4 8 Oeste 22 Sudoeste 0 1010 -0.2 74
2018-04-10 01:00:00 14.1 15 Sudoeste 26 Sudoeste 0 1010.4 1 66
2018-04-10 00:00:00 14.2 12 Sudoeste 21 Oeste 0 1010.5 2 63
2018-04-09 23:00:00 14 14 Oeste 45 Sudoeste 0 1010.2 1.9 73
2018-04-09 22:00:00 14.1 31 Oeste 48 Oeste 0 1009.4 1.1 71
2018-04-09 21:00:00 14.4 35 Sudoeste 58 Oeste 0 1008.5 0.2 66
2018-04-09 20:00:00 15.6 44 Oeste 67 Oeste 0 1008.3 -0.1 53
2018-04-09 19:00:00 16.2 40 Sudoeste 61 Sudoeste 0 1008.3 -0.2 50
2018-04-09 18:00:00 16 46 Sudoeste 67 Sudoeste 0 1008.3 -0.6 58
2018-04-09 17:00:00 16.1 49 Sudoeste 67 Sudoeste 0 1008.4 -0.9 57
2018-04-09 16:00:00 15.4 52 Sudoeste 72 Sudoeste 0 1008.5 -0.7 57
2018-04-09 15:00:00 16.2 47 Sudoeste 71 Sudoeste 0 1008.9 -0.9 56
2018-04-09 14:00:00 16.4 45 Sudoeste 63 Sudoeste 0 1009.3 0.3 49
2018-04-09 13:00:00 15.3 42 Sudoeste 59 Oeste 0 1009.2 0.7 52
2018-04-09 12:00:00 15 36 Oeste 50 Oeste 0 1009.8 1.7 44
2018-04-09 11:00:00 14.8 35 Sudoeste 54 Sudoeste 0 1009 1.5 49
2018-04-09 10:00:00 14.6 31 Sudoeste 46 Sudoeste 0 1008.5 1.4 52
2018-04-09 09:00:00 14.3 19 Oeste 35 Sudoeste 0 1008.1 1 56
2018-04-09 08:00:00 14.1 26 Sudoeste 45 Sudoeste 0 1007.5 0.7 63
2018-04-09 07:00:00 13.5 23 Sudoeste 30 Sudoeste 0 1007.1 0.1 85
2018-04-09 06:00:00 13 19 Oeste 35 Oeste 0 1007.1 -0.5 85
2018-04-09 05:00:00 13.5 28 Sudoeste 45 Oeste 0 1006.8 -0.9 80
2018-04-09 04:00:00 13.9 27 Oeste 46 Oeste 0 1007 -0.9 70
2018-04-09 03:00:00 14.1 28 Oeste 50 Oeste 0 1007.6 -0.5 71
2018-04-09 02:00:00 14.1 25 Oeste 48 Oeste 0 1007.7 -0.2 66
2018-04-09 01:00:00 14.3 33 Oeste 58 Sudoeste 0 1007.9 0.5 70
2018-04-09 00:00:00 14.4 28 Sudoeste 48 Oeste 0 1008.1 1.4 70
2018-04-08 23:00:00 14.8 35 Oeste 50 Oeste 0 1007.9 1.2 70
2018-04-08 22:00:00 15.1 27 Sudoeste 41 Oeste 0 1007.4 0.9 69
2018-04-08 21:00:00 15.4 33 Oeste 54 Sudoeste 0 1006.7 0.6 67
2018-04-08 20:00:00 16.6 35 Sudoeste 59 Sudoeste 0 1006.7 0.7 65
2018-04-08 19:00:00 17.9 41 Sudoeste 55 Oeste 0 1006.5 0.2 57
2018-04-08 18:00:00 17.6 46 Sudoeste 65 Oeste 0 1006.1 -0.5 55
2018-04-08 17:00:00 19.4 39 Sudoeste 63 Sudoeste 0 1006 -1.1 52
2018-04-08 16:00:00 18.6 42 Sudoeste 59 Sudoeste 0 1006.3 -1.2 53
2018-04-08 15:00:00 20 42 Sudoeste 58 Sudoeste 0 1006.6 -0.9 46
2018-04-08 14:00:00 19.1 41 Sudoeste 55 Sudoeste 0 1007.1 -0.3 50
2018-04-08 13:00:00 18.1 30 Sudoeste 41 Sudoeste 0 1007.5 0 56
2018-04-08 12:00:00 17.4 22 Sudoeste 30 Sudoeste 0 1007.5 0.4 51
2018-04-08 11:00:00 15.3 11 Sudoeste 21 Sudoeste 0 1007.4 0.8 63
2018-04-08 10:00:00 13.5 12 Sudoeste 21 Oeste 0 1007.5 1.4 70
2018-04-08 09:00:00 13.4 14 Oeste 24 Oeste 0 1007.1 1.2 68
2018-04-08 08:00:00 12 15 Oeste 30 Oeste 0 1006.6 0.5 74
2018-04-08 07:00:00 10.4 7 Oeste 13 Noroeste 0 1006.1 0.1 73
2018-04-08 06:00:00 10.7 7 Noroeste 15 Noroeste 0 1005.9 -0.5 73
2018-04-08 05:00:00 11.4 12 Noroeste 42 Sudoeste 0 1006.1 -0.5 73
2018-04-08 04:00:00 13.4 33 Sudoeste 48 Sudoeste 0 1006 -0.4 75
2018-04-08 03:00:00 13.1 18 Oeste 33 Oeste 0 1006.4 0 71
2018-04-08 02:00:00 13.3 19 Sudoeste 26 Sudoeste 0 1006.6 0.6 70
2018-04-08 01:00:00 12.9 12 Oeste 45 Oeste 0 1006.4 0.6 77
2018-04-08 00:00:00 13.6 34 Oeste 55 Oeste 0 1006.4 1.4 75
2018-04-07 23:00:00 14.2 30 Oeste 48 Sudoeste 0 1006 1.1 68
2018-04-07 22:00:00 14.4 33 Sudoeste 55 Sudoeste 0 1005.8 1 79
2018-04-07 21:00:00 14.8 39 Oeste 55 Oeste 0 1005 0.7 74
2018-04-07 20:00:00 16 39 Sudoeste 58 Oeste 0 1004.9 0.6 67
2018-04-07 19:00:00 16.9 41 Sudoeste 55 Oeste 0 1004.8 0.5 67
2018-04-07 18:00:00 16.2 34 Sudoeste 48 Sudoeste 0 1004.3 -0.2 71
2018-04-07 17:00:00 15.1 37 Sudoeste 63 Oeste 0 1004.3 -0.1 73
2018-04-07 16:00:00 14.5 47 Sudoeste 67 Sudoeste 0 1004.3 -0.4 77
2018-04-07 15:00:00 15.3 39 Sudoeste 55 Oeste 0 1004.5 -0.3 79
2018-04-07 14:00:00 17.3 30 Sudoeste 41 Sudoeste 0 1004.4 -0.4 69
2018-04-07 13:00:00 17.8 30 Sudoeste 41 Sudoeste 0 1004.7 0.2 71
2018-04-07 12:00:00 18 8 Sudeste 13 Sur 0 1004.8 0.8 73
2018-04-07 11:00:00 17.2 9 Sudoeste 18 Sudoeste 0 1004.8 1.2 78
2018-04-07 10:00:00 15.6 7 Sur 13 Sur 0 1004.5 1 86
2018-04-07 09:00:00 15 5 Sudoeste 11 Sudoeste 0 1004 0.5 90
2018-04-07 08:00:00 14.9 9 Norte 13 Noroeste 0 1003.6 0 88
2018-04-07 07:00:00 14.6 9 Nordeste 13 Nordeste 0 1003.5 -0.4 90
2018-04-07 06:00:00 14.2 11 Nordeste 15 Nordeste 0 1003.5 -0.5 91
2018-04-07 05:00:00 13.3 7 Nordeste 18 Este 0 1003.6 -1.5 93
2018-04-07 04:00:00 13.1 14 Este 21 Nordeste 0 1003.9 -1.5 91
2018-04-07 03:00:00 14.4 5 Nordeste 18 Sudoeste 0 1004 -2.2 90
2018-04-07 02:00:00 15.3 12 Sudoeste 18 Oeste 0 1005.1 -1.6 84
2018-04-07 01:00:00 15 10 Noroeste 24 Norte 0 1005.4 -1.3 84
2018-04-07 00:00:00 15.1 10 Noroeste 18 Oeste 0 1006.2 0.1 84
2018-04-06 23:00:00 15.3 11 Oeste 21 Oeste 0 1006.7 1.6 83
2018-04-06 22:00:00 15.3 9 Sur 17 Sur 0 1006.7 2.4 88
2018-04-06 21:00:00 15.9 5 Este 33 Sudoeste 0 1006.1 2.1 81
2018-04-06 20:00:00 17.4 19 Sudoeste 42 Sudoeste 0 1005.1 0.9 70
2018-04-06 19:00:00 18.7 19 Sudoeste 32 Sudoeste 0 1004.3 -0.2 70
2018-04-06 18:00:00 18.5 23 Sudoeste 46 Sudoeste 0 1004 -1.2 72
2018-04-06 17:00:00 26.4 14 Este 33 Este 0 1004.2 -1.9 35
2018-04-06 16:00:00 25.8 23 Este 35 Este 0 1004.5 -2.3 32
2018-04-06 15:00:00 25.2 25 Este 35 Este 0 1005.2 -3.2 32
2018-04-06 14:00:00 25.7 18 Este 32 Nordeste 0 1006.1 -2.1 33
2018-04-06 13:00:00 23 21 Nordeste 28 Nordeste 0 1006.8 -1.9 34
2018-04-06 12:00:00 22.3 15 Nordeste 35 Nordeste 0 1008.4 -0.2 32
2018-04-06 11:00:00 19.8 22 Este 35 Nordeste 0 1008.2 -0.4 34
2018-04-06 10:00:00 19.5 11 Nordeste 35 Noroeste 0 1008.7 0.1 35
2018-04-06 09:00:00 18.9 21 Noroeste 37 Noroeste 0 1008.6 -0.5 33
2018-04-06 08:00:00 18.7 24 Noroeste 41 Noroeste 0 1008.6 -1.1 33
2018-04-06 07:00:00 18.5 18 Norte 37 Noroeste 0 1008.6 -1.8 34
2018-04-06 06:00:00 18.7 19 Norte 41 Noroeste 0 1009.1 -2.7 32
2018-04-06 05:00:00 18.3 23 Noroeste 39 Norte 0 1009.7 -3.5 35
2018-04-06 04:00:00 17.7 13 Norte 42 Noroeste 0 1010.4 -3.6 40
2018-04-06 03:00:00 17.3 27 Noroeste 37 Noroeste 0 1011.8 -2.1 43
2018-04-06 02:00:00 17.1 5 Norte 21 Norte 0 1013.2 -0.2 48
2018-04-06 01:00:00 18.1 12 Norte 32 Noroeste 0 1014 0.6 43
2018-04-06 00:00:00 18.7 9 Norte 22 Este 0 1013.9 1.6 35
2018-04-05 23:00:00 17.9 16 Este 35 Nordeste 0 1013.4 1.4 38
2018-04-05 22:00:00 18.4 21 Este 37 Este 0 1013.4 1.3 37
2018-04-05 21:00:00 19.6 26 Este 41 Este 0 1012.3 -0.3 32
2018-04-05 20:00:00 20.7 28 Este 48 Este 0 1012 -1.3 33
2018-04-05 19:00:00 22 40 Este 50 Este 0 1012.1 -2.1 31
2018-04-05 18:00:00 23.1 39 Este 52 Este 0 1012.6 -2.6 29
2018-04-05 17:00:00 23.9 31 Este 45 Este 0 1013.3 -2.7 30
2018-04-05 16:00:00 24.4 31 Este 41 Este 0 1014.2 -2.5 29
2018-04-05 15:00:00 24.5 24 Este 39 Este 0 1015.2 -1.9 29
2018-04-05 14:00:00 24 24 Este 37 Este 0 1016 -1.3 30
2018-04-05 13:00:00 24.1 23 Este 39 Este 0 1016.7 -0.7 29
2018-04-05 12:00:00 23.3 22 Este 35 Nordeste 0 1017.1 0.2 31
2018-04-05 11:00:00 22.1 20 Nordeste 30 Nordeste 0 1017.3 0.4 31
2018-04-05 10:00:00 17.8 9 Norte 22 Norte 0 1017.4 0.7 37
2018-04-05 09:00:00 15.2 15 Norte 22 Norte 0 1016.9 -0.1 41
2018-04-05 08:00:00 12.8 12 Norte 18 Norte 0 1016.9 -0.3 51
2018-04-05 07:00:00 12.3 16 Norte 22 Norte 0 1016.7 -0.2 56
2018-04-05 06:00:00 11.7 12 Norte 15 Norte 0 1017 0 79
2018-04-05 05:00:00 -- 8 Norte 13 Este 0 1017.2 0 --
2018-04-05 04:00:00 11.6 6 Nordeste 11 Norte 0 1016.9 -0.1 68
2018-04-05 03:00:00 12.4 3 Norte 11 Norte 0 1017 0.3 67
2018-04-05 02:00:00 12.6 6 Nordeste 17 Nordeste 0 1017.2 0.8 64
2018-04-05 01:00:00 13.7 14 Nordeste 21 Este 0 1017 1.6 78
2018-04-05 00:00:00 14.1 14 Nordeste 21 Nordeste 0 1016.7 2.2 74
2018-04-04 23:00:00 14 13 Nordeste 18 Este 0 1016.4 2.7 73
2018-04-04 22:00:00 15 9 Nordeste 13 Este 0 1015.4 2.2 68
2018-04-04 21:00:00 17 3 Oeste 39 Sudoeste 0 1014.5 1.7 59
2018-04-04 20:00:00 17.9 30 Sudoeste 45 Sudoeste 0 1013.7 0.4 58
2018-04-04 19:00:00 18.3 35 Sudoeste 54 Sudoeste 0 1013.2 -0.4 59
2018-04-04 18:00:00 18.5 33 Sudoeste 50 Sudoeste 0 1012.8 -0.9 62
2018-04-04 17:00:00 18.7 34 Sudoeste 52 Oeste 0 1013.3 -0.7 62
2018-04-04 16:00:00 18.7 35 Sudoeste 50 Sudoeste 0 1013.6 -0.7 63
2018-04-04 15:00:00 18.6 35 Sudoeste 52 Sudoeste 0 1013.7 -0.6 63
2018-04-04 14:00:00 18.3 34 Sudoeste 46 Sudoeste 0 1014 0.2 66
2018-04-04 13:00:00 18.3 29 Sudoeste 48 Sudoeste 0 1014.3 0.9 68
2018-04-04 12:00:00 17.7 32 Sudoeste 42 Sudoeste 0 1014.3 1.4 69
2018-04-04 11:00:00 17.4 31 Sudoeste 42 Sudoeste 0 1013.8 1.7 67
2018-04-04 10:00:00 16.8 21 Sudoeste 30 Sudoeste 0 1013.4 2.1 59
2018-04-04 09:00:00 15.3 19 Oeste 30 Oeste 0 1012.9 2.1 63
2018-04-04 08:00:00 13.3 14 Oeste 30 Oeste 0 1012.1 1.9 67
2018-04-04 07:00:00 13.7 19 Oeste 33 Oeste 0 1011.3 1.5 74
2018-04-04 06:00:00 13.9 18 Oeste 33 Oeste 0 1010.8 1.2 80
2018-04-04 05:00:00 14 15 Sudoeste 41 Sudoeste 0 1010.2 0.8 86
2018-04-04 04:00:00 14.8 22 Sudoeste 46 Sudoeste 0 1009.8 0.9 84
2018-04-04 03:00:00 15.7 30 Sudoeste 39 Sudoeste 0 1009.6 1.4 79
2018-04-04 02:00:00 15.7 27 Sudoeste 41 Sudoeste 0 1009.4 1.5 82
2018-04-04 01:00:00 16.6 28 Sudoeste 39 Oeste 0 1008.9 1.9 76
2018-04-04 00:00:00 16 23 Sudoeste 37 Oeste 0 1008.2 2 84
2018-04-03 23:00:00 16.7 28 Sudoeste 42 Sudoeste 0 1007.9 2 80
2018-04-03 22:00:00 18.5 31 Sudoeste 54 Oeste 0 1007 1.3 66
2018-04-03 21:00:00 19.4 31 Oeste 55 Oeste 0 1006.2 0.2 60
2018-04-03 20:00:00 18.6 40 Sudoeste 59 Sudoeste 0 1005.9 -0.3 70
2018-04-03 19:00:00 19.4 36 Sudoeste 54 Sudoeste 0 1005.7 -0.8 67
2018-04-03 18:00:00 19.9 41 Sudoeste 63 Sudoeste 0 1006 -1.5 66
2018-04-03 17:00:00 19.5 37 Sudoeste 61 Sudoeste 0 1006.2 -2.2 70
2018-04-03 16:00:00 19.9 42 Sudoeste 55 Sudoeste 0 1006.5 -2.2 67
2018-04-03 15:00:00 19.3 29 Sudoeste 39 Sudoeste 0 1007.5 -1.3 71
2018-04-03 14:00:00 18.5 14 Sur 28 Sur 0 1008.4 -0.1 78
2018-04-03 13:00:00 18.3 23 Sudoeste 32 Sudoeste 0 1008.7 0.8 78
2018-04-03 12:00:00 18.4 12 Sudeste 17 Sudeste 0 1008.8 1.8 65
2018-04-03 11:00:00 17.5 11 Sudeste 17 Este 0 1008.5 1.8 69
2018-04-03 10:00:00 15.8 10 Este 13 Este 0 1007.9 1 75
2018-04-03 09:00:00 12.8 0 Calma 13 Oeste 0 1007 0.3 83
2018-04-03 08:00:00 11.9 9 Noroeste 15 Oeste 0 1006.7 0.1 86
2018-04-03 07:00:00 12.2 0 Calma 11 Norte 0 1006.9 -0.2 86
2018-04-03 06:00:00 12.2 10 Noroeste 24 Norte 0 1006.7 -0.8 87
2018-04-03 05:00:00 12.6 12 Noroeste 15 Noroeste 0 1006.6 -1.3 86
2018-04-03 04:00:00 12.9 3 Noroeste 13 Noroeste 0 1007.1 -1.4 86
2018-04-03 03:00:00 13.4 7 Noroeste 9 Noroeste 0 1007.5 -0.9 90
2018-04-03 02:00:00 13.6 6 Este 9 Nordeste 0 1007.9 -0.1 90
2018-04-03 01:00:00 13.9 9 Sur 13 Sur 0 1008.5 1.2 90
2018-04-03 00:00:00 14.2 9 Sudoeste 15 Sur 0 1008.4 2 91
2018-04-02 23:00:00 14.4 13 Sudoeste 18 Sur 0 1008 2.6 88
2018-04-02 22:00:00 14.7 12 Sur 24 Sur 0 1007.3 2.1 84
2018-04-02 21:00:00 14.8 16 Sur 26 Sur 0 1006.4 1.3 81
2018-04-02 20:00:00 15.5 13 Sur 30 Sur 0 1005.4 -0.2 75
2018-04-02 19:00:00 16.2 22 Sudoeste 33 Sudoeste 0 1005.2 -0.8 72
2018-04-02 18:00:00 17 24 Sudoeste 32 Sudoeste 0 1005.1 -1.6 68
2018-04-02 17:00:00 17.9 18 Sudoeste 28 Sudoeste 0 1005.6 -1.8 67
2018-04-02 16:00:00 19.4 21 Sudoeste 28 Sudoeste 0 1006 -1.4 56
2018-04-02 15:00:00 17.8 12 Sudeste 18 Sur 0 1006.7 -0.8 65
2018-04-02 14:00:00 18.1 14 Sur 21 Sur 0 1007.4 0.1 72
2018-04-02 13:00:00 17.6 14 Sur 18 Sur 0 1007.4 0 69
2018-04-02 12:00:00 17.1 13 Sudeste 18 Sudeste 0 1007.5 0.3 72
2018-04-02 11:00:00 17.1 10 Sudeste 13 Sudeste 0 1007.3 1.2 50
2018-04-02 10:00:00 15.9 8 Nordeste 13 Nordeste 0 1007.4 1.3 43
2018-04-02 09:00:00 13.8 9 Nordeste 13 Nordeste 0 1007.2 0.7 43
2018-04-02 08:00:00 13.6 8 Norte 21 Norte 0 1006.1 -0.8 38
2018-04-02 07:00:00 13.8 9 Noroeste 18 Oeste 0 1006.1 -1.1 37
2018-04-02 06:00:00 14.3 13 Noroeste 24 Norte 0 1006.5 -1.4 36
2018-04-02 05:00:00 15.1 17 Noroeste 30 Noroeste 0 1006.9 -1.4 33
2018-04-02 04:00:00 15.3 16 Noroeste 28 Noroeste 0 1007.2 -1.9 33
2018-04-02 03:00:00 15.5 15 Noroeste 22 Noroeste 0 1007.9 -1.5 33
2018-04-02 02:00:00 15.9 15 Noroeste 30 Noroeste 0 1008.3 -1.4 32
2018-04-02 01:00:00 16.3 12 Norte 24 Norte 0 1009.1 0.1 30
2018-04-02 00:00:00 16 10 Norte 26 Norte 0 1009.4 0.8 32
2018-04-01 23:00:00 17.3 12 Norte 28 Norte 0 1009.7 1.1 29
2018-04-01 22:00:00 18.2 12 Norte 35 Nordeste 0 1009 -0.3 26
2018-04-01 21:00:00 18.3 28 Nordeste 48 Este 0 1008.6 -1.4 25
2018-04-01 20:00:00 18.8 33 Este 46 Este 0 1008.6 -2.2 27
2018-04-01 19:00:00 20 32 Este 48 Este 0 1009.3 -2.3 25
2018-04-01 18:00:00 21.1 36 Este 50 Este 0 1010 -2.9 26
2018-04-01 17:00:00 21.6 34 Este 50 Este 0 1010.8 -3 26
2018-04-01 16:00:00 22.3 32 Este 48 Este 0 1011.6 -3 25
2018-04-01 15:00:00 22.5 31 Este 42 Este 0 1012.9 -2.3 25
2018-04-01 14:00:00 21.9 27 Este 42 Este 0 1013.8 -1.7 25
2018-04-01 13:00:00 21.7 27 Este 41 Este 0 1014.6 -1.7 26
2018-04-01 12:00:00 20.6 29 Este 41 Este 0 1015.2 -1 27
2018-04-01 11:00:00 19.4 24 Nordeste 37 Nordeste 0 1015.5 -0.3 31
2018-04-01 10:00:00 15 12 Norte 26 Norte 0 1016.3 0.6 40
2018-04-01 09:00:00 11.7 16 Norte 28 Noroeste 0 1016.2 0.6 47
2018-04-01 08:00:00 9.7 10 Norte 13 Norte 0 1015.8 0.1 59
2018-04-01 07:00:00 10 7 Norte 11 Norte 0 1015.7 -0.6 54
2018-04-01 06:00:00 10.6 7 Nordeste 30 Norte 0 1015.6 -0.6 52
2018-04-01 05:00:00 10.5 18 Norte 24 Noroeste 0 1015.7 -0.7 57
2018-04-01 04:00:00 10.3 12 Norte 15 Norte 0 1016.3 -0.3 63
2018-04-01 03:00:00 10.3 8 Nordeste 15 Norte 0 1016.2 -0.1 67
2018-04-01 02:00:00 10.3 5 Nordeste 13 Sudeste 0 1016.4 0.1 82
2018-04-01 01:00:00 11.9 5 Nordeste 13 Sudeste 0 1016.6 1.2 81
2018-04-01 00:00:00 12.4 10 Sudeste 15 Nordeste 0 1016.3 2.2 72
2018-03-31 23:00:00 12.7 13 Este 17 Este 0 1016.3 2.9 78
2018-03-31 22:00:00 12.7 11 Este 15 Este 0 1015.4 2.4 79
2018-03-31 21:00:00 14.4 8 Sudeste 11 Sudeste 0 1014.1 1.1 75
2018-03-31 20:00:00 16.2 8 Sudoeste 26 Sudoeste 0 1013.4 0.6 65
2018-03-31 19:00:00 18 19 Sudoeste 39 Sudoeste 0 1013 0 55
2018-03-31 18:00:00 18.1 28 Sudoeste 39 Sudoeste 0 1013 0.2 53
2018-03-31 17:00:00 18.4 20 Sudoeste 30 Sudoeste 0 1012.8 -0.4 54
2018-03-31 16:00:00 18.1 21 Sudoeste 32 Sudoeste 0 1013 -0.2 58
2018-03-31 15:00:00 18 24 Sudoeste 33 Sudoeste 0 1012.8 0.5 53
2018-03-31 14:00:00 17.5 15 Sudoeste 28 Sudoeste 0 1013.2 2 50
2018-03-31 13:00:00 17.2 18 Sudoeste 35 Sur 0 1013.2 2.3 49
2018-03-31 12:00:00 18.2 17 Sur 46 Noroeste 0 1012.3 2 40
2018-03-31 11:00:00 17.3 29 Noroeste 45 Norte 0 1011.2 2 26
2018-03-31 10:00:00 15.4 20 Noroeste 32 Noroeste 0 1010.9 2.3 33
2018-03-31 09:00:00 12.9 10 Oeste 18 Sudoeste 0 1010.3 2.5 47
2018-03-31 08:00:00 12.3 11 Norte 26 Norte 0 1009.2 1.8 54
2018-03-31 07:00:00 10.7 4 Norte 37 Oeste 0 1008.6 1.2 71
2018-03-31 06:00:00 12.7 27 Oeste 61 Oeste 0 1007.8 0.5 68
2018-03-31 05:00:00 13.2 37 Oeste 55 Oeste 0 1007.4 -0.6 65
2018-03-31 04:00:00 13 28 Oeste 65 Oeste 0 1007.4 -0.4 58
2018-03-31 03:00:00 13.5 39 Sudoeste 68 Oeste 0 1007.3 -1 58
2018-03-31 02:00:00 13.7 39 Oeste 54 Oeste 0 1008 0.3 54
2018-03-31 01:00:00 13.6 26 Oeste 41 Sudoeste 0 1007.8 0.5 57
2018-03-31 00:00:00 13.8 27 Oeste 61 Sudoeste 0 1008.3 1 63
2018-03-30 23:00:00 14.2 43 Sudoeste 61 Sudoeste 0 1007.7 0.9 69
2018-03-30 22:00:00 14.2 46 Sudoeste 65 Sudoeste 0 1007.3 0.8 72
2018-03-30 21:00:00 14.3 35 Oeste 71 Oeste 0 1007.3 1.5 75
2018-03-30 20:00:00 15 49 Oeste 65 Oeste 0 1006.8 1 73
2018-03-30 19:00:00 15.7 44 Sudoeste 76 Sudoeste 0 1006.5 0.2 73
2018-03-30 18:00:00 15.8 57 Sudoeste 76 Sudoeste 0 1005.8 -1.2 71
2018-03-30 17:00:00 16.6 51 Sudoeste 67 Sudoeste 0 1005.8 -1.4 64
2018-03-30 16:00:00 16.5 47 Sudoeste 72 Oeste 0 1006.3 -1.2 70
2018-03-30 15:00:00 16.6 51 Sudoeste 89 Sudoeste 0 1007 -1.2 68
2018-03-30 14:00:00 16.5 61 Sudoeste 82 Oeste 0 1007.2 -1 67
2018-03-30 13:00:00 17.2 56 Oeste 78 Oeste 0 1007.5 -0.4 52
2018-03-30 12:00:00 16.4 49 Sudoeste 65 Oeste 0 1008.2 0.6 54
2018-03-30 11:00:00 15.8 35 Sudoeste 54 Sudoeste 0 1008.2 1.4 55
2018-03-30 10:00:00 14.4 35 Sudoeste 58 Oeste 0 1007.9 1.7 63
2018-03-30 09:00:00 13.7 30 Sudoeste 42 Oeste 0 1007.6 1.7 63
2018-03-30 08:00:00 12.5 19 Oeste 33 Oeste 0 1006.8 1.2 66
2018-03-30 07:00:00 13 24 Sudoeste 41 Sudoeste 0 1006.2 0.3 66
2018-03-30 06:00:00 13.3 26 Sudoeste 39 Sudoeste 0 1005.9 -0.4 71
2018-03-30 05:00:00 13.5 31 Oeste 46 Oeste 0 1005.6 -0.6 72
2018-03-30 04:00:00 13.8 30 Sudoeste 42 Oeste 0 1005.9 -0.5 74
2018-03-30 03:00:00 13.6 27 Sudoeste 41 Sudoeste 0 1006.3 -0.3 82
2018-03-30 02:00:00 13.6 26 Oeste 41 Oeste 0 1006.2 -0.5 82
2018-03-30 01:00:00 13.8 18 Sudoeste 30 Sudoeste 0 1006.4 0.2 80
2018-03-30 00:00:00 14.4 20 Oeste 42 Oeste 0 1006.6 0.7 77
2018-03-29 23:00:00 14.5 31 Oeste 48 Sudoeste 0 1006.7 1.1 80
2018-03-29 22:00:00 14.8 36 Sudoeste 55 Sudoeste 0 1006.2 0.9 82
2018-03-29 21:00:00 15.5 39 Sudoeste 65 Oeste 0 1005.9 0.4 80
2018-03-29 20:00:00 16.8 44 Sudoeste 63 Sudoeste 0 1005.6 -0.1 73
2018-03-29 19:00:00 17.2 47 Sudoeste 67 Sudoeste 0 1005.3 -1.3 73
2018-03-29 18:00:00 17.4 47 Sudoeste 63 Oeste 0 1005.5 -2.3 70
2018-03-29 17:00:00 17.8 46 Sudoeste 63 Sudoeste 0 1005.7 -3.2 70
2018-03-29 16:00:00 17.6 32 Sudoeste 50 Oeste 0 1006.6 -2.8 72
2018-03-29 15:00:00 18.6 22 Sudoeste 33 Sudoeste 0 1007.8 -2.1 70
2018-03-29 14:00:00 16.8 8 Sudeste 13 Sudeste 0 1008.9 -1 76
2018-03-29 13:00:00 15.7 9 Sur 13 Sur 0 1009.4 -0.1 84
2018-03-29 12:00:00 14 6 Sudoeste 13 Sur 0 1009.9 0.6 96
2018-03-29 11:00:00 13 5 Sudeste 8 Sur 0 1009.9 0.8 99
2018-03-29 10:00:00 12.9 4 Sudoeste 8 Sudoeste 0 1009.5 0.5 99
2018-03-29 09:00:00 13 2 Sur 8 Sur 0 1009.3 0.3 99
2018-03-29 08:00:00 12.4 0 Calma 9 Nordeste 0 1009.1 0.1 99
2018-03-29 07:00:00 13 3 Norte 11 Nordeste 0 1009 -0.4 99
2018-03-29 06:00:00 12.5 8 Norte 15 Nordeste 0 1009 -1 99
2018-03-29 05:00:00 12.8 10 Nordeste 13 Nordeste 0 1009 -1.6 99
2018-03-29 04:00:00 12.1 12 Nordeste 15 Nordeste 0 1009.4 -2 95
2018-03-29 03:00:00 12.8 9 Nordeste 13 Norte 0 1010 -1.5 94
2018-03-29 02:00:00 13.3 6 Nordeste 11 Nordeste 0 1010.6 -1.3 93
2018-03-29 01:00:00 12.9 6 Nordeste 9 Nordeste 0 1011.4 -0.4 93
2018-03-29 00:00:00 13.7 0 Calma 8 Oeste 0 1011.5 -0.3 93
2018-03-28 23:00:00 14.1 3 Oeste 15 Sudoeste 0 1011.9 0.1 93
2018-03-28 22:00:00 14.8 10 Sudoeste 13 Sudoeste 0 1011.8 0 94
2018-03-28 21:00:00 15.1 6 Sur 17 Sur 0 1011.8 -0.2 92
2018-03-28 20:00:00 16.1 10 Sur 21 Sur 0 1011.8 -1.2 85
2018-03-28 19:00:00 17.4 10 Sur 21 Sur 0 1011.8 -2.4 75
2018-03-28 18:00:00 18 9 Sur 22 Sur 0 1012 -3.5 66
2018-03-28 17:00:00 18.4 15 Sur 24 Sur 0 1013 -3.3 67
2018-03-28 16:00:00 18.6 16 Sur 28 Sur 0 1014.2 -3 69
2018-03-28 15:00:00 18.4 8 Sur 17 Sur 0 1015.5 -2.1 70
2018-03-28 14:00:00 18 10 Sur 15 Sur 0 1016.3 -1.5 73
2018-03-28 13:00:00 17.3 8 Sur 15 Sur 0 1017.2 -0.5 78
2018-03-28 12:00:00 16.5 8 Sur 13 Sur 0 1017.6 -0.4 76
2018-03-28 11:00:00 15.5 10 Sur 15 Sur 0 1017.8 -0.2 79
2018-03-28 10:00:00 14.8 0 Calma 8 Noroeste 0 1017.7 -0.5 77
2018-03-28 09:00:00 11.4 0 Calma 11 Norte 0 1018 -0.3 87
2018-03-28 08:00:00 9.7 6 Norte 8 Norte 0 1018 -0.8 82
2018-03-28 07:00:00 10.6 8 Norte 11 Norte 0 1018.2 -1.1 79
2018-03-28 06:00:00 10.9 8 Norte 11 Norte 0 1018.3 -1.4 82
2018-03-28 05:00:00 11.1 6 Nordeste 9 Nordeste 0 1018.8 -1.3 84
2018-03-28 04:00:00 11.4 6 Nordeste 9 Este 0 1019.3 -1.4 76
2018-03-28 03:00:00 11.5 6 Nordeste 8 Nordeste 0 1019.7 -1.1 80
2018-03-28 02:00:00 12.2 0 Calma 8 Nordeste 0 1020.1 -1 77
2018-03-28 01:00:00 12.2 2 Norte 9 Sur 0 1020.7 -0.4 80
2018-03-28 00:00:00 13.2 2 Este 9 Este 0 1020.8 0 78
2018-03-27 23:00:00 13.5 7 Nordeste 13 Sudeste 0 1021.1 0.4 86
2018-03-27 22:00:00 14 9 Este 11 Este 0 1021.1 0.5 80
2018-03-27 21:00:00 15.3 0 Calma 11 Sudeste 0 1020.8 0 78
2018-03-27 20:00:00 16.9 4 Sudoeste 22 Sudoeste 0 1020.7 -0.1 70
2018-03-27 19:00:00 17.8 15 Sudoeste 26 Sudoeste 0 1020.6 -0.7 66
2018-03-27 18:00:00 17.9 16 Sur 30 Sudoeste 0 1020.8 -1.3 71
2018-03-27 17:00:00 18.8 19 Sur 30 Sudoeste 0 1020.8 -2.1 60
2018-03-27 16:00:00 19.2 12 Sur 18 Sur 0 1021.3 -1.7 60
2018-03-27 15:00:00 18.5 9 Sur 17 Sudoeste 0 1022.1 -1 59
2018-03-27 14:00:00 17.8 10 Sudoeste 18 Sudoeste 0 1022.9 0.3 78
2018-03-27 13:00:00 17.7 9 Sudoeste 15 Sur 0 1023 0.7 73
2018-03-27 12:00:00 16.7 10 Sudoeste 17 Sur 0 1023.1 1.3 77
2018-03-27 11:00:00 17.1 7 Sur 18 Noroeste 0 1022.6 1.3 55
2018-03-27 10:00:00 17.3 10 Noroeste 18 Noroeste 0 1022.3 1.3 47
2018-03-27 09:00:00 15.6 13 Noroeste 28 Noroeste 0 1021.8 1.1 43
2018-03-27 08:00:00 14.7 18 Noroeste 30 Norte 0 1021.3 0.3 42
2018-03-27 07:00:00 13.7 19 Noroeste 26 Noroeste 0 1021 -0.1 45
2018-03-27 06:00:00 12.2 0 Calma 22 Noroeste 0 1020.7 -0.9 58
2018-03-27 05:00:00 12.3 15 Noroeste 22 Noroeste 0 1021 -0.5 52
2018-03-27 04:00:00 11.5 5 Oeste 13 Oeste 0 1021.1 -0.4 58
2018-03-27 03:00:00 13.4 10 Oeste 22 Oeste 0 1021.6 0.2 52
2018-03-27 02:00:00 10.7 5 Noroeste 11 Noroeste 0 1021.5 0.4 83
2018-03-27 01:00:00 11.3 2 Sudoeste 11 Sudoeste 0 1021.5 1 79
2018-03-27 00:00:00 11.9 3 Este 13 Este 0 1021.4 1.9 73
2018-03-26 23:00:00 12.5 10 Nordeste 15 Este 0 1021.1 2.6 82
2018-03-26 22:00:00 13.2 10 Nordeste 15 Norte 0 1020.5 2.5 81
2018-03-26 21:00:00 14.9 5 Nordeste 33 Sudoeste 0 1019.5 1.7 70
2018-03-26 20:00:00 15.5 24 Sudoeste 37 Sudoeste 0 1018.5 0.6 75
2018-03-26 19:00:00 17 26 Sudoeste 39 Sudoeste 0 1018 0 61
2018-03-26 18:00:00 16.9 23 Sudoeste 32 Sudoeste 0 1017.8 -0.5 67
2018-03-26 17:00:00 16.4 25 Sudoeste 35 Sudoeste 0 1017.9 -0.8 66
2018-03-26 16:00:00 17.2 27 Sudoeste 39 Sudoeste 0 1018 -0.6 70
2018-03-26 15:00:00 17.4 27 Sudoeste 35 Sudoeste 0 1018.3 -0.4 70
2018-03-26 14:00:00 17.6 22 Sudoeste 30 Sudoeste 0 1018.7 0.9 62
2018-03-26 13:00:00 17.5 18 Sudoeste 30 Sudoeste 0 1018.6 1.1 54
2018-03-26 12:00:00 17.4 18 Sudoeste 33 Oeste 0 1018.7 1.7 57
2018-03-26 11:00:00 18 19 Noroeste 42 Noroeste 0 1017.8 1.7 32
2018-03-26 10:00:00 16 17 Noroeste 28 Norte 0 1017.5 2 37
2018-03-26 09:00:00 12.8 15 Noroeste 21 Noroeste 0 1017 1.9 47
2018-03-26 08:00:00 12.5 5 Oeste 30 Noroeste 0 1016.1 1.3 47
2018-03-26 07:00:00 12.9 14 Noroeste 30 Noroeste 0 1015.5 0.7 44
2018-03-26 06:00:00 13.1 16 Oeste 32 Oeste 0 1015.1 0.8 48
2018-03-26 05:00:00 13.1 16 Oeste 32 Oeste 0 1014.8 1 56
2018-03-26 04:00:00 13.5 12 Oeste 37 Oeste 0 1014.8 1.7 62
2018-03-26 03:00:00 13.3 13 Sudoeste 18 Sudoeste 0 1014.3 1.9 69
2018-03-26 02:00:00 14.1 17 Norte 28 Norte 0 1013.8 2.3 44
2018-03-26 01:00:00 11.7 10 Norte 21 Norte 0 1013.1 2.9 58
2018-03-26 00:00:00 10.5 7 Sur 17 Sur 0 1012.4 3.3 72
2018-03-25 23:00:00 11.9 12 Nordeste 18 Norte 0 1011.5 3.5 67
2018-03-25 22:00:00 12.7 10 Este 21 Sudeste 0 1010.2 2.9 66
2018-03-25 21:00:00 12.8 8 Este 9 Este 0 1009.1 2.7 79
2018-03-25 20:00:00 14.4 0 Calma 11 Sudoeste 0 1008 2.2 72
2018-03-25 19:00:00 14 10 Sudoeste 15 Sudoeste 0.1 1007.3 1.7 75
2018-03-25 18:00:00 13.9 11 Sudoeste 22 Sudoeste 0.1 1006.4 0.7 80
2018-03-25 17:00:00 14.5 17 Sudoeste 30 Sudoeste 0 1005.8 -0.3 77
2018-03-25 16:00:00 15.5 24 Sudoeste 37 Sudoeste 0 1005.6 -1.4 69
2018-03-25 15:00:00 16 29 Sudoeste 41 Sudoeste 0 1005.7 -2.1 69
2018-03-25 14:00:00 15.1 8 Sur 18 Sudeste 0 1006.1 -1.9 61
2018-03-25 13:00:00 16.2 12 Sudeste 17 Sur 0 1007 -0.9 58
2018-03-25 12:00:00 15.8 7 Nordeste 18 Norte 0 1007.8 1.3 43
2018-03-25 11:00:00 14.3 3 Oeste 18 Noroeste 0 1008 2.3 49
2018-03-25 10:00:00 13.6 12 Oeste 35 Noroeste 0 1007.9 2.7 46
2018-03-25 09:00:00 13.1 25 Noroeste 45 Noroeste 0 1006.5 1.3 43
2018-03-25 08:00:00 12.7 29 Noroeste 52 Noroeste 0 1005.7 1.1 42
2018-03-25 07:00:00 12.9 22 Noroeste 37 Norte 0 1005.2 0.4 41
2018-03-25 06:00:00 13.8 8 Oeste 28 Oeste 0 1005.2 0 41
2018-03-25 05:00:00 13.7 17 Noroeste 50 Norte 0 1004.6 -0.6 38
2018-03-25 03:00:00 13.2 9 Nordeste 21 Norte 0 1005.2 -0.9 50
2018-03-25 01:00:00 13.3 13 Sudeste 30 Sudeste 0 1005.2 -0.4 60
2018-03-25 00:00:00 12.4 6 Este 28 Sudoeste 0 1005.7 0.1 62
2018-03-24 23:00:00 14 23 Sudoeste 32 Sudoeste 0 1006.1 0.8 56
2018-03-24 22:00:00 14.1 13 Sudoeste 42 Sudoeste 0 1005.6 1 60
2018-03-24 21:00:00 14.4 21 Oeste 41 Sudoeste 0 1005.6 0.9 45
2018-03-24 20:00:00 15.2 19 Oeste 45 Oeste 0 1005.3 1.1 38
2018-03-24 19:00:00 16.8 30 Oeste 50 Oeste 0 1004.6 0.7 30
2018-03-24 18:00:00 17.9 39 Noroeste 63 Noroeste 0 1004.7 1 24
2018-03-24 17:00:00 18.5 39 Noroeste 67 Oeste 0 1004.2 -0.2 24
2018-03-24 16:00:00 18.9 46 Noroeste 65 Oeste 0 1003.9 -0.6 22
2018-03-24 15:00:00 18.9 36 Oeste 74 Noroeste 0 1003.7 -0.3 23
2018-03-24 14:00:00 18.1 48 Noroeste 76 Noroeste 0 1004.4 0.6 22
2018-03-24 13:00:00 17.3 44 Noroeste 76 Noroeste 0 1004.5 2.3 25
2018-03-24 12:00:00 16.6 45 Noroeste 76 Noroeste 0 1004 4.1 26
2018-03-24 11:00:00 15.7 50 Noroeste 80 Noroeste 0 1003.8 4.8 29
2018-03-24 10:00:00 15 48 Noroeste 72 Noroeste 0 1002.2 3.9 31
2018-03-24 09:00:00 14.5 36 Noroeste 84 Norte 0 999.9 2.5 33
2018-03-24 08:00:00 13.7 44 Noroeste 68 Noroeste 0 999 1.5 37
2018-03-24 07:00:00 10.9 39 Noroeste 76 Sudoeste 0.8 998.3 -0.9 70
2018-03-24 06:00:00 14.3 59 Sudoeste 93 Sudoeste 0 997.4 -3 81
2018-03-24 05:00:00 14.1 53 Oeste 76 Oeste 0 997.5 -4.8 81
2018-03-24 04:00:00 14.2 33 Oeste 67 Oeste 0 999.2 -4.5 82
2018-03-24 03:00:00 13.9 48 Oeste 72 Oeste 0 1000.4 -3.9 86
2018-03-24 02:00:00 13.8 45 Oeste 68 Sudoeste 0 1002.3 -3.5 87
2018-03-24 01:00:00 13.7 49 Oeste 67 Oeste 0 1003.7 -3.2 85
2018-03-24 00:00:00 14 40 Sudoeste 78 Oeste 0 1004.3 -3.3 82
2018-03-23 23:00:00 14 44 Sudoeste 63 Oeste 0 1005.8 -2.5 82
2018-03-23 22:00:00 14.3 28 Sudoeste 39 Sudoeste 0 1006.9 -1.6 77
2018-03-23 21:00:00 14.4 12 Oeste 26 Sudoeste 0 1007.6 -1.1 78
2018-03-23 20:00:00 14.5 16 Oeste 24 Oeste 0 1008.3 -1.1 76
2018-03-23 19:00:00 14.5 9 Oeste 18 Sudoeste 0 1008.5 -1.5 68
2018-03-23 18:00:00 14.5 10 Sur 15 Sur 0 1008.7 -1.7 76
2018-03-23 17:00:00 14.6 2 Sur 11 Sudeste 0 1009.4 -2.1 72
2018-03-23 16:00:00 15.1 9 Sudoeste 24 Oeste 0 1010 -2.3 66
2018-03-23 15:00:00 15.4 17 Sudoeste 28 Sudoeste 0 1010.4 -2.8 58
2018-03-23 14:00:00 16.2 17 Sudoeste 28 Sudoeste 0 1011.5 -2.3 48
2018-03-23 13:00:00 16.4 22 Sudoeste 32 Sudoeste 0 1012.3 -1.6 61
2018-03-23 12:00:00 15.7 14 Sudoeste 18 Sur 0 1013.2 -0.9 59
2018-03-23 11:00:00 16.1 8 Sur 15 Sur 0 1013.8 0 55
2018-03-23 10:00:00 15.7 12 Sudeste 17 Sur 0 1013.9 0.4 52
2018-03-23 09:00:00 13.8 8 Nordeste 15 Este 0 1014.1 0.2 54
2018-03-23 08:00:00 8.7 10 Nordeste 17 Norte 0 1013.8 -0.4 79
2018-03-23 07:00:00 8.4 4 Norte 13 Oeste 0 1013.5 -1.1 79
2018-03-23 06:00:00 8.6 8 Sudoeste 24 Sudoeste 0 1013.9 -1.5 78
2018-03-23 05:00:00 7.1 5 Norte 15 Norte 0 1014.2 -2.4 82
2018-03-23 04:00:00 7.1 5 Norte 13 Norte 0 1014.6 -2.7 79
2018-03-23 03:00:00 7.2 5 Norte 11 Norte 0 1015.4 -2.3 79
2018-03-23 02:00:00 7.8 5 Norte 9 Noroeste 0 1016.6 -1.8 78
2018-03-23 01:00:00 8.1 8 Noroeste 13 Norte 0 1017.3 -1.5 77
2018-03-23 00:00:00 8.4 9 Noroeste 15 Noroeste 0 1017.7 -1.5 76